Swoope, Virginia
Current Conditions -  °F | °C
As of 5:55 PM on Wednesday 22 Oct 2014 (Local Time) from KW13 Reporting Station
Overcast Overcast  
Wind Chill: 52°   Ceiling: 3200
Heat Index: 52°   Visibility: 10mi
Dew Point: 41°   Wind: 9mph
Humidity: 66%   Direction: 340°NNW
Pressure: 30.02"   Gusts: NA
Location:  38.16°N, 79.21°W
Report Text: KW13 222155Z AUTO 34008KT 10SM OVC032 11/05 A3002 RMK AO1 T01120051
Loading
Personal Weather Stations






























Interactive Weather Map
Tropical Storm Tracking
New forecast layout! Learn more

10-Day Weather Forecast

Advertisements
Track Severe Weather on mobile